createdAt,value
2022-12-19T00:01:35.291Z,67.03
2022-12-19T00:04:07.724Z,67.23
2022-12-19T00:06:36.763Z,67.89
2022-12-19T00:09:04.048Z,66.92
2022-12-19T00:11:30.988Z,67.61
2022-12-19T00:13:58.505Z,67.20
2022-12-19T00:16:29.662Z,66.42
2022-12-19T00:18:58.422Z,66.71
2022-12-19T00:21:29.907Z,66.09
2022-12-19T00:23:57.218Z,66.07
2022-12-19T00:26:26.296Z,65.90
2022-12-19T00:28:55.386Z,66.55
2022-12-19T00:31:24.737Z,65.99
2022-12-19T00:33:51.257Z,67.05
2022-12-19T00:36:22.840Z,66.58
2022-12-19T00:38:50.606Z,67.01
2022-12-19T00:41:18.515Z,66.22
2022-12-19T00:43:46.583Z,67.39
2022-12-19T00:46:15.491Z,67.34
2022-12-19T00:48:43.172Z,67.57
2022-12-19T00:51:16.098Z,66.99
2022-12-19T00:53:45.329Z,67.42
2022-12-19T00:56:17.924Z,67.15
2022-12-19T00:58:47.060Z,67.29
2022-12-19T01:01:19.526Z,67.11
2022-12-19T01:04:11.318Z,66.28
2022-12-19T01:06:33.620Z,66.30
2022-12-19T01:09:00.939Z,66.46
2022-12-19T01:11:27.408Z,66.22
2022-12-19T01:13:53.876Z,66.22
2022-12-19T01:16:20.497Z,66.37
2022-12-19T01:18:47.639Z,65.52
2022-12-19T01:21:14.206Z,65.67
2022-12-19T01:23:40.690Z,66.30
2022-12-19T01:26:07.502Z,66.67
2022-12-19T01:28:34.128Z,67.10
2022-12-19T01:31:00.660Z,66.51
2022-12-19T01:33:29.907Z,66.46
2022-12-19T01:35:56.694Z,66.64
2022-12-19T01:38:23.519Z,66.92
2022-12-19T01:40:52.051Z,66.25
2022-12-19T01:43:18.882Z,66.41
2022-12-19T01:45:47.025Z,65.62
2022-12-19T01:48:16.689Z,65.89
2022-12-19T01:51:02.230Z,65.66
2022-12-19T01:53:37.315Z,65.58
2022-12-19T01:56:16.356Z,65.54
2022-12-19T01:58:44.975Z,66.04
2022-12-19T02:01:11.562Z,66.26
2022-12-19T02:03:38.175Z,66.69
2022-12-19T02:06:05.834Z,67.25
2022-12-19T02:08:32.825Z,67.16
2022-12-19T02:11:00.719Z,66.93
2022-12-19T02:13:27.394Z,67.19
2022-12-19T02:16:09.988Z,67.33
2022-12-19T02:19:01.648Z,67.71
2022-12-19T02:21:40.677Z,67.91
2022-12-19T02:24:16.584Z,68.07
2022-12-19T02:26:48.310Z,67.22
2022-12-19T02:29:24.036Z,68.81
2022-12-19T02:32:15.393Z,67.73
2022-12-19T02:35:25.999Z,67.58
2022-12-19T02:38:33.212Z,68.76
2022-12-19T02:41:23.349Z,68.03
2022-12-19T02:43:53.832Z,69.11
2022-12-19T02:46:26.151Z,69.13
2022-12-19T02:48:52.763Z,69.25
2022-12-19T02:51:19.533Z,68.14
2022-12-19T02:53:46.067Z,68.26
2022-12-19T02:56:34.266Z,69.83
2022-12-19T02:59:03.943Z,69.45
2022-12-19T03:01:36.328Z,68.83
2022-12-19T03:04:17.931Z,69.11
2022-12-19T03:07:03.584Z,68.38
2022-12-19T03:09:45.295Z,68.28
2022-12-19T03:12:17.724Z,68.30
2022-12-19T03:14:45.578Z,67.83
2022-12-19T03:17:12.184Z,67.87
2022-12-19T03:19:39.309Z,67.41
2022-12-19T03:22:07.376Z,67.42
2022-12-19T03:24:33.968Z,67.53
2022-12-19T03:27:09.196Z,67.62
2022-12-19T03:29:43.164Z,67.94
2022-12-19T03:32:12.654Z,68.26
2022-12-19T03:34:47.689Z,69.31
2022-12-19T03:37:17.391Z,68.93
2022-12-19T03:39:47.091Z,67.72
2022-12-19T03:42:14.999Z,68.39
2022-12-19T03:44:42.840Z,67.03
2022-12-19T03:47:22.791Z,66.93
2022-12-19T03:49:49.582Z,67.68
2022-12-19T03:52:59.725Z,67.29
2022-12-19T03:55:37.445Z,66.22
2022-12-19T03:58:10.140Z,66.05
2022-12-19T04:00:38.847Z,66.34
2022-12-19T04:03:05.826Z,66.19
2022-12-19T04:05:32.875Z,64.37
2022-12-19T04:08:03.196Z,64.55
2022-12-19T04:10:30.274Z,65.85
2022-12-19T04:13:20.372Z,65.78
2022-12-19T04:16:13.405Z,65.50
2022-12-19T04:18:42.137Z,67.97
2022-12-19T04:21:13.028Z,67.55
2022-12-19T04:23:45.027Z,67.23
2022-12-19T04:26:12.712Z,67.25
2022-12-19T04:28:45.647Z,68.11
2022-12-19T04:31:14.135Z,67.01
2022-12-19T04:33:40.905Z,66.82
2022-12-19T04:36:07.619Z,65.45
2022-12-19T04:38:34.224Z,64.93
2022-12-19T04:41:00.724Z,64.55
2022-12-19T04:43:27.296Z,64.82
2022-12-19T04:45:57.311Z,64.07
2022-12-19T04:48:24.420Z,64.56
2022-12-19T04:50:50.902Z,64.94
2022-12-19T04:53:17.406Z,63.84
2022-12-19T04:55:43.868Z,64.53
2022-12-19T04:58:11.434Z,63.61
2022-12-19T05:00:38.555Z,65.68
2022-12-19T05:03:05.211Z,66.60
2022-12-19T05:05:31.735Z,66.60
2022-12-19T05:07:58.252Z,68.05
2022-12-19T05:10:24.936Z,67.89
2022-12-19T05:12:51.392Z,68.44
2022-12-19T05:15:18.303Z,68.02
2022-12-19T05:17:44.777Z,68.34
2022-12-19T05:20:11.617Z,68.59
2022-12-19T05:22:38.083Z,70.03
2022-12-19T05:25:06.190Z,69.92
2022-12-19T05:27:32.680Z,69.92
2022-12-19T05:29:59.231Z,69.54
2022-12-19T05:32:25.751Z,70.33
2022-12-19T05:34:52.356Z,70.66
2022-12-19T05:37:18.885Z,70.66
2022-12-19T05:39:45.317Z,68.50
2022-12-19T05:42:12.609Z,66.44
2022-12-19T05:44:39.408Z,64.70
2022-12-19T05:47:06.004Z,63.10
2022-12-19T05:49:32.509Z,63.81
2022-12-19T05:51:58.987Z,64.76
2022-12-19T05:54:25.947Z,63.23
2022-12-19T05:56:52.395Z,64.12
2022-12-19T05:59:18.895Z,64.57
2022-12-19T06:01:45.561Z,64.87
2022-12-19T06:04:12.217Z,65.71
2022-12-19T06:06:38.803Z,67.10
2022-12-19T06:09:05.382Z,66.42
2022-12-19T06:11:32.319Z,66.85
2022-12-19T06:13:58.932Z,67.10
2022-12-19T06:16:25.496Z,67.69
2022-12-19T06:18:52.360Z,69.28
2022-12-19T06:21:23.352Z,69.81
2022-12-19T06:23:50.350Z,70.03
2022-12-19T06:26:19.992Z,71.25
2022-12-19T06:28:51.817Z,70.40
2022-12-19T06:31:22.851Z,70.98
2022-12-19T06:33:49.571Z,73.05
2022-12-19T06:36:20.255Z,73.29
2022-12-19T06:38:49.903Z,74.30
2022-12-19T06:41:16.879Z,75.52
2022-12-19T06:43:43.942Z,74.30
2022-12-19T06:46:11.403Z,73.42
2022-12-19T06:48:38.299Z,72.04
2022-12-19T06:51:05.077Z,71.96
2022-12-19T06:53:31.604Z,71.93
2022-12-19T06:55:59.117Z,71.95
2022-12-19T06:58:26.700Z,72.13
2022-12-19T07:00:54.162Z,71.05
2022-12-19T07:03:24.270Z,70.20
2022-12-19T07:05:51.072Z,69.39
2022-12-19T07:08:17.598Z,70.46
2022-12-19T07:10:44.389Z,69.62
2022-12-19T07:13:10.907Z,69.17
2022-12-19T07:15:38.168Z,70.14
2022-12-19T07:18:05.949Z,74.33
2022-12-19T07:20:33.265Z,72.74
2022-12-19T07:23:00.518Z,72.25
2022-12-19T07:25:27.078Z,73.14
2022-12-19T07:27:53.593Z,72.57
2022-12-19T07:30:20.208Z,72.26
2022-12-19T07:32:46.711Z,71.21
2022-12-19T07:35:13.652Z,70.72
2022-12-19T07:37:40.428Z,71.86
2022-12-19T07:40:07.704Z,73.19
2022-12-19T07:42:34.599Z,72.60
2022-12-19T07:45:01.445Z,73.02
2022-12-19T07:47:28.160Z,72.49
2022-12-19T07:49:54.688Z,71.08
2022-12-19T07:52:22.682Z,68.74
2022-12-19T07:54:49.294Z,68.32
2022-12-19T07:57:15.767Z,68.29
2022-12-19T07:59:42.232Z,68.99
2022-12-19T08:02:08.950Z,67.71
2022-12-19T08:04:35.626Z,68.17
2022-12-19T08:07:02.256Z,68.36
2022-12-19T08:09:28.843Z,67.77
2022-12-19T08:11:55.369Z,69.30
2022-12-19T08:14:21.929Z,68.93
2022-12-19T08:17:19.267Z,72.16
2022-12-19T08:19:35.868Z,74.09
2022-12-19T08:22:02.505Z,71.81
2022-12-19T08:24:28.968Z,72.05
2022-12-19T08:26:55.584Z,71.71
2022-12-19T08:29:22.281Z,73.14
2022-12-19T08:31:49.178Z,73.42
2022-12-19T08:34:15.654Z,72.98
2022-12-19T08:36:42.239Z,72.67
2022-12-19T08:39:08.716Z,72.19
2022-12-19T08:41:35.269Z,71.75
2022-12-19T08:44:01.842Z,70.66
2022-12-19T08:46:28.901Z,69.75
2022-12-19T08:48:56.435Z,69.27
2022-12-19T08:51:22.905Z,68.85
2022-12-19T08:53:49.382Z,68.88
2022-12-19T08:56:18.671Z,68.46
2022-12-19T08:58:46.127Z,69.46
2022-12-19T09:01:15.146Z,69.88
2022-12-19T09:03:50.464Z,70.90
2022-12-19T09:06:28.557Z,71.88
2022-12-19T09:09:00.205Z,72.29
2022-12-19T09:11:27.244Z,72.43
2022-12-19T09:13:56.010Z,72.79
2022-12-19T09:16:23.493Z,72.37
2022-12-19T09:18:54.667Z,72.22
2022-12-19T09:21:23.404Z,71.44
2022-12-19T09:23:52.042Z,70.37
2022-12-19T09:26:19.357Z,70.41
2022-12-19T09:28:46.762Z,68.74
2022-12-19T09:31:15.791Z,68.34
2022-12-19T09:33:43.899Z,67.94
2022-12-19T09:36:15.207Z,67.03
2022-12-19T09:38:41.992Z,67.00
2022-12-19T09:41:29.683Z,68.20
2022-12-19T09:44:20.979Z,67.81
2022-12-19T09:47:03.926Z,67.37
2022-12-19T09:49:41.995Z,67.83
2022-12-19T09:52:08.622Z,67.70
2022-12-19T09:54:42.056Z,66.58
2022-12-19T09:57:29.963Z,68.20
2022-12-19T09:59:59.389Z,68.49
2022-12-19T10:02:44.531Z,67.68
2022-12-19T10:05:29.288Z,67.68
2022-12-19T10:08:10.423Z,68.07
2022-12-19T10:12:40.988Z,66.99
2022-12-19T10:14:32.653Z,66.68
2022-12-19T10:17:26.533Z,65.90
2022-12-19T10:20:30.698Z,64.68
2022-12-19T10:23:15.523Z,65.99
2022-12-19T10:26:08.840Z,66.42
2022-12-19T10:29:15.418Z,65.82
2022-12-19T10:31:53.886Z,65.86
2022-12-19T10:34:23.098Z,65.78
2022-12-19T10:37:25.180Z,66.59
2022-12-19T10:39:48.203Z,67.18
2022-12-19T10:42:24.848Z,67.61
2022-12-19T10:44:53.791Z,67.58
2022-12-19T10:47:20.358Z,67.69
2022-12-19T10:49:47.180Z,67.92
2022-12-19T10:52:13.685Z,67.32
2022-12-19T10:54:41.998Z,66.83
2022-12-19T10:57:21.653Z,66.39
2022-12-19T11:00:00.358Z,67.11
2022-12-19T11:02:40.401Z,67.53
2022-12-19T11:05:21.318Z,67.73
2022-12-19T11:08:03.034Z,66.73
2022-12-19T11:11:47.821Z,66.30
2022-12-19T11:18:43.730Z,66.22
2022-12-19T11:22:05.369Z,65.93
2022-12-19T11:29:31.918Z,65.55
2022-12-19T11:29:46.781Z,65.84
2022-12-19T11:30:21.350Z,65.64
2022-12-19T11:30:25.641Z,65.25
2022-12-19T11:34:06.104Z,66.28
2022-12-19T11:36:50.182Z,65.40
2022-12-19T11:39:35.356Z,59.56
2022-12-19T11:42:15.563Z,57.43
2022-12-19T11:44:51.174Z,54.90
2022-12-19T11:47:22.705Z,53.95
2022-12-19T11:49:55.363Z,53.50
2022-12-19T11:55:23.930Z,54.24
2022-12-19T11:57:50.498Z,54.60
2022-12-19T12:00:22.358Z,55.10
2022-12-19T12:02:55.809Z,54.75
2022-12-19T12:05:28.452Z,54.58
2022-12-19T12:11:10.451Z,56.59
2022-12-19T12:19:43.237Z,65.45
2022-12-19T12:27:50.849Z,65.37
2022-12-19T12:31:01.217Z,66.03
2022-12-19T12:31:23.447Z,66.85
2022-12-19T12:31:31.783Z,66.72
2022-12-19T12:31:44.952Z,67.00
2022-12-19T12:32:02.057Z,66.99
2022-12-19T12:35:46.390Z,67.68
2022-12-19T12:41:32.630Z,67.96
2022-12-19T12:44:09.414Z,68.43
2022-12-19T12:46:49.272Z,68.82
2022-12-19T12:49:30.819Z,68.35
2022-12-19T12:51:59.505Z,68.74
2022-12-19T12:54:32.609Z,68.08
2022-12-19T12:56:59.082Z,68.39
2022-12-19T12:59:28.001Z,68.57
2022-12-19T13:01:57.767Z,67.62
2022-12-19T13:04:33.630Z,66.55
2022-12-19T13:07:26.571Z,66.39
2022-12-19T13:10:06.098Z,65.98
2022-12-19T13:12:32.689Z,64.50
2022-12-19T13:15:26.818Z,66.12
2022-12-19T13:17:53.531Z,66.07
2022-12-19T13:20:29.346Z,59.73
2022-12-19T13:22:58.908Z,62.02
2022-12-19T13:25:34.509Z,58.38
2022-12-19T13:28:00.941Z,57.65
2022-12-19T13:30:46.677Z,55.71
2022-12-19T13:33:20.491Z,53.80
2022-12-19T13:39:13.687Z,57.75
2022-12-19T13:39:54.776Z,64.41
2022-12-19T13:41:40.973Z,66.01
2022-12-19T13:44:08.337Z,65.14
2022-12-19T13:46:41.539Z,65.79
2022-12-19T13:49:15.389Z,65.38
2022-12-19T13:52:02.257Z,61.08
2022-12-19T13:54:31.991Z,60.37
2022-12-19T13:56:59.429Z,58.50
2022-12-19T13:59:34.558Z,55.85
2022-12-19T14:02:08.129Z,53.67
2022-12-19T14:04:34.822Z,53.49
2022-12-19T14:07:04.122Z,51.54
2022-12-19T14:11:38.254Z,51.50
2022-12-19T14:13:56.903Z,50.52
2022-12-19T14:15:23.136Z,51.14
2022-12-19T14:17:49.717Z,50.80
2022-12-19T14:22:11.705Z,50.53
2022-12-19T14:23:25.520Z,51.45
2022-12-19T14:28:17.610Z,50.75
2022-12-19T14:29:01.617Z,50.27
2022-12-19T14:31:28.391Z,50.88
2022-12-19T14:34:19.091Z,48.96
2022-12-19T14:36:48.526Z,50.30
2022-12-19T14:39:22.264Z,51.26
2022-12-19T14:42:48.273Z,50.28
2022-12-19T14:53:51.126Z,53.54
2022-12-19T14:54:18.060Z,51.77
2022-12-19T14:54:28.465Z,63.39
2022-12-19T14:57:25.096Z,64.24
2022-12-19T15:00:00.859Z,60.18
2022-12-19T15:02:33.977Z,58.84
2022-12-19T15:05:07.483Z,56.34
2022-12-19T15:07:34.669Z,54.90
2022-12-19T15:11:05.553Z,53.90
2022-12-19T15:14:49.012Z,55.37
2022-12-19T15:15:53.862Z,55.40
2022-12-19T15:18:32.365Z,55.59
2022-12-19T15:21:01.620Z,55.74
2022-12-19T15:23:30.965Z,54.72
2022-12-19T15:26:03.893Z,55.46
2022-12-19T15:28:53.446Z,55.16
2022-12-19T15:31:40.749Z,55.73
2022-12-19T15:36:57.548Z,56.21
2022-12-19T15:39:24.686Z,56.80
2022-12-19T15:41:52.220Z,56.78
2022-12-19T15:44:41.121Z,57.31
2022-12-19T15:47:34.989Z,56.16
2022-12-19T15:50:02.170Z,56.42
2022-12-19T15:52:29.520Z,57.66
2022-12-19T15:54:56.091Z,56.36
2022-12-19T15:57:39.741Z,57.65
2022-12-19T16:00:10.847Z,58.31
2022-12-19T16:03:13.187Z,58.37
2022-12-19T16:05:25.631Z,60.17
2022-12-19T16:07:52.287Z,59.83
2022-12-19T16:10:18.933Z,59.58
2022-12-19T16:12:48.773Z,60.83
2022-12-19T16:15:15.908Z,59.64
2022-12-19T16:17:42.468Z,60.60
2022-12-19T16:20:24.352Z,61.83
2022-12-19T16:22:51.117Z,61.15
2022-12-19T16:25:17.901Z,60.84
2022-12-19T16:27:46.793Z,60.45
2022-12-19T16:30:20.031Z,60.29
2022-12-19T16:32:51.867Z,60.61
2022-12-19T16:35:40.362Z,60.22
2022-12-19T16:38:08.392Z,60.21
2022-12-19T16:40:35.319Z,61.56
2022-12-19T16:43:10.622Z,60.57
2022-12-19T16:45:37.676Z,60.17
2022-12-19T16:48:16.639Z,60.74
2022-12-19T16:50:43.185Z,60.40
2022-12-19T16:53:09.800Z,61.27
2022-12-19T16:55:36.310Z,59.96
2022-12-19T16:58:04.329Z,59.87
2022-12-19T17:00:34.593Z,60.74
2022-12-19T17:03:08.665Z,60.82
2022-12-19T17:05:38.427Z,60.03
2022-12-19T17:08:12.515Z,59.70
2022-12-19T17:10:40.245Z,60.94
2022-12-19T17:13:07.012Z,61.04
2022-12-19T17:15:36.095Z,60.96
2022-12-19T17:18:05.190Z,61.55
2022-12-19T17:20:37.277Z,61.39
2022-12-19T17:23:11.531Z,61.20
2022-12-19T17:25:38.082Z,60.74
2022-12-19T17:28:04.607Z,60.88
2022-12-19T17:30:31.143Z,61.56
2022-12-19T17:32:57.746Z,61.79
2022-12-19T17:35:28.289Z,61.53
2022-12-19T17:37:56.650Z,62.00
2022-12-19T17:40:25.792Z,62.79
2022-12-19T17:42:53.205Z,61.43
2022-12-19T17:45:19.764Z,61.08
2022-12-19T17:47:46.292Z,61.61
2022-12-19T17:50:24.418Z,61.80
2022-12-19T17:52:51.399Z,62.32
2022-12-19T17:55:20.936Z,61.44
2022-12-19T17:57:48.059Z,61.29
2022-12-19T18:00:16.850Z,61.17
2022-12-19T18:02:44.689Z,61.43
2022-12-19T18:05:19.680Z,60.76
2022-12-19T18:07:46.430Z,60.44
2022-12-19T18:10:23.421Z,60.51
2022-12-19T18:12:49.954Z,61.08
2022-12-19T18:15:20.554Z,61.18
2022-12-19T18:17:48.051Z,61.09
2022-12-19T18:20:31.952Z,61.24
2022-12-19T18:22:59.786Z,60.42
2022-12-19T18:25:30.795Z,60.96
2022-12-19T18:27:58.130Z,60.74
2022-12-19T18:30:25.399Z,60.32
2022-12-19T18:32:55.821Z,60.51
2022-12-19T18:35:23.117Z,60.76
2022-12-19T18:37:52.743Z,60.13
2022-12-19T18:40:27.546Z,60.28
2022-12-19T18:42:57.663Z,60.66
2022-12-19T18:45:33.895Z,60.90
2022-12-19T18:48:00.959Z,61.72
2022-12-19T18:50:28.727Z,61.50
2022-12-19T18:52:55.996Z,61.24
2022-12-19T18:55:26.763Z,61.24
2022-12-19T18:57:54.467Z,62.11
2022-12-19T19:00:27.735Z,60.06
2022-12-19T19:03:00.278Z,61.12
2022-12-19T19:05:30.628Z,60.30
2022-12-19T19:07:58.409Z,60.25
2022-12-19T19:10:27.733Z,60.02
2022-12-19T19:12:55.024Z,59.49
2022-12-19T19:15:24.105Z,59.63
2022-12-19T19:17:54.654Z,59.12
2022-12-19T19:20:21.222Z,59.47
2022-12-19T19:22:47.851Z,59.18
2022-12-19T19:25:14.409Z,59.07
2022-12-19T19:27:41.106Z,59.64
2022-12-19T19:30:08.502Z,59.78
2022-12-19T19:32:35.094Z,59.21
2022-12-19T19:35:02.478Z,59.63
2022-12-19T19:37:29.388Z,59.19
2022-12-19T19:39:55.955Z,60.01
2022-12-19T19:42:22.588Z,60.74
2022-12-19T19:44:49.130Z,60.51
2022-12-19T19:47:15.868Z,59.63
2022-12-19T19:49:42.510Z,58.49
2022-12-19T19:52:09.086Z,58.88
2022-12-19T19:54:35.811Z,59.64
2022-12-19T19:57:02.321Z,60.58
2022-12-19T19:59:30.335Z,60.02
2022-12-19T20:01:57.249Z,59.86
2022-12-19T20:04:23.978Z,60.58
2022-12-19T20:06:50.550Z,59.94
2022-12-19T20:09:17.095Z,61.58
2022-12-19T20:11:43.583Z,60.20
2022-12-19T20:14:10.118Z,59.62
2022-12-19T20:16:36.663Z,59.45
2022-12-19T20:19:03.222Z,59.47
2022-12-19T20:21:29.839Z,58.66
2022-12-19T20:23:56.492Z,58.82
2022-12-19T20:26:23.089Z,58.10
2022-12-19T20:28:50.558Z,58.97
2022-12-19T20:31:22.844Z,57.85
2022-12-19T20:33:50.306Z,57.67
2022-12-19T20:36:16.977Z,57.59
2022-12-19T20:38:43.582Z,57.67
2022-12-19T20:41:10.125Z,58.44
2022-12-19T20:43:36.680Z,58.97
2022-12-19T20:46:11.596Z,58.36
2022-12-19T20:48:38.443Z,57.85
2022-12-19T20:51:05.692Z,57.18
2022-12-19T20:53:33.989Z,56.80
2022-12-19T20:56:01.809Z,56.91
2022-12-19T20:58:29.812Z,56.74
2022-12-19T21:01:10.800Z,56.70
2022-12-19T21:03:38.447Z,56.70
2022-12-19T21:06:06.396Z,56.77
2022-12-19T21:08:33.279Z,55.93
2022-12-19T21:11:01.229Z,56.66
2022-12-19T21:13:28.171Z,56.01
2022-12-19T21:15:58.760Z,57.00
2022-12-19T21:18:26.612Z,57.17
2022-12-19T21:20:53.618Z,57.73
2022-12-19T21:23:20.512Z,56.76
2022-12-19T21:25:47.338Z,56.66
2022-12-19T21:28:14.042Z,57.31
2022-12-19T21:30:40.957Z,57.38
2022-12-19T21:33:08.199Z,58.16
2022-12-19T21:35:35.573Z,58.09
2022-12-19T21:38:02.348Z,58.19
2022-12-19T21:40:28.828Z,58.18
2022-12-19T21:42:55.319Z,58.51
2022-12-19T21:45:21.781Z,59.15
2022-12-19T21:47:48.859Z,59.60
2022-12-19T21:50:15.575Z,59.92
2022-12-19T21:52:42.367Z,60.36
2022-12-19T21:55:11.599Z,60.45
2022-12-19T21:57:42.101Z,60.75
2022-12-19T22:00:11.431Z,60.30
2022-12-19T22:02:38.710Z,60.85
2022-12-19T22:05:06.332Z,61.22
2022-12-19T22:07:33.564Z,61.51
2022-12-19T22:10:00.057Z,61.86
2022-12-19T22:12:26.862Z,61.12
2022-12-19T22:14:53.386Z,60.84
2022-12-19T22:17:19.895Z,61.30
2022-12-19T22:19:46.660Z,60.73
2022-12-19T22:22:13.217Z,59.71
2022-12-19T22:24:39.767Z,59.97
2022-12-19T22:27:06.233Z,59.90
2022-12-19T22:29:32.834Z,58.84
2022-12-19T22:31:59.378Z,58.98
2022-12-19T22:34:25.972Z,60.05
2022-12-19T22:36:52.554Z,60.65
2022-12-19T22:39:20.173Z,61.37
2022-12-19T22:41:47.068Z,61.73
2022-12-19T22:44:19.963Z,62.07
2022-12-19T22:46:46.584Z,61.49
2022-12-19T22:49:13.413Z,62.34
2022-12-19T22:51:40.340Z,62.50
2022-12-19T22:54:07.451Z,62.34
2022-12-19T22:56:34.661Z,61.22
2022-12-19T22:59:06.881Z,61.77
2022-12-19T23:01:39.110Z,61.35
2022-12-19T23:04:07.108Z,60.71
2022-12-19T23:06:35.992Z,60.17
2022-12-19T23:09:03.845Z,60.63
2022-12-19T23:11:33.908Z,59.94
2022-12-19T23:14:01.343Z,59.80
2022-12-19T23:16:28.746Z,60.32
2022-12-19T23:18:55.321Z,61.28
2022-12-19T23:21:23.564Z,60.96
2022-12-19T23:23:53.148Z,62.07
2022-12-19T23:26:28.218Z,61.86
2022-12-19T23:29:04.084Z,61.40
2022-12-19T23:31:31.015Z,61.30
2022-12-19T23:33:58.173Z,61.24
2022-12-19T23:36:45.723Z,61.70
2022-12-19T23:39:12.405Z,60.73
2022-12-19T23:41:39.178Z,58.63
2022-12-19T23:44:05.945Z,59.92
2022-12-19T23:46:32.905Z,60.40
2022-12-19T23:48:59.510Z,61.95
2022-12-19T23:51:27.209Z,62.13
2022-12-19T23:53:55.208Z,59.81
2022-12-19T23:56:23.806Z,60.80
2022-12-19T23:58:50.934Z,58.47
